Time;durP1;ratioP1;P1;durP2;ratioP2;P2;SDS_P1;SDS_P2;PMS_P1;PMS_P2;Temp;Humidity;BMP_temperature;BMP_pressure;BME280_temperature;BME280_humidity;BME280_pressure;Samples;Min_cycle;Max_cycle;Signal;HPM_P1;HPM_P2
2023/01/30 00:01:32;;;;;;;0.00;0.00;;;;;;;6.53;100.00;101117.03;4866480;29;20159;-76
2023/01/30 00:04:04;;;;;;;0.05;0.05;;;;;;;6.37;100.00;101124.66;4902819;29;20052;-77
2023/01/30 00:06:30;;;;;;;0.00;0.00;;;;;;;6.14;100.00;101135.28;4883598;29;20035;-76
2023/01/30 00:09:01;;;;;;;0.00;0.00;;;;;;;5.95;100.00;101122.41;4885300;29;20033;-77
2023/01/30 00:11:28;;;;;;;0.00;0.00;;;;;;;5.90;100.00;101116.81;4887375;29;20049;-76
2023/01/30 00:13:54;;;;;;;0.00;0.00;;;;;;;5.86;100.00;101101.19;4868961;29;20024;-77
2023/01/30 00:16:19;;;;;;;0.00;0.00;;;;;;;5.90;100.00;101114.09;4893590;29;20498;-77
2023/01/30 00:18:45;;;;;;;0.00;0.00;;;;;;;5.69;100.00;101090.81;4885986;29;20088;-76
2023/01/30 00:21:13;;;;;;;0.00;0.00;;;;;;;5.70;100.00;101116.91;4903181;29;20024;-77
2023/01/30 00:23:41;;;;;;;0.10;0.10;;;;;;;5.63;100.00;101128.84;4890135;29;20120;-76
2023/01/30 00:26:08;;;;;;;0.00;0.00;;;;;;;5.66;100.00;101137.38;4886319;29;20056;-76
2023/01/30 00:28:41;;;;;;;0.00;0.00;;;;;;;5.70;100.00;101133.19;4903127;29;20096;-76
2023/01/30 00:31:07;;;;;;;0.00;0.00;;;;;;;5.51;100.00;101105.09;4893838;29;20077;-76
2023/01/30 00:33:40;;;;;;;0.10;0.10;;;;;;;5.49;100.00;101100.94;4886224;29;20020;-74
2023/01/30 00:36:09;;;;;;;0.00;0.00;;;;;;;5.52;100.00;101117.63;4900063;29;20131;-74
2023/01/30 00:38:35;;;;;;;0.00;0.00;;;;;;;5.33;100.00;101097.69;4893770;29;20025;-74
2023/01/30 00:41:03;;;;;;;0.00;0.00;;;;;;;5.35;100.00;101095.56;4875403;29;20031;-74
2023/01/30 00:49:05;;;;;;;0.00;0.00;;;;;;;5.40;100.00;101097.63;4906287;29;20039;-75
2023/01/30 00:51:36;;;;;;;0.00;0.00;;;;;;;5.42;100.00;101079.28;4893869;29;20052;-74
2023/01/30 00:54:17;;;;;;;0.08;0.08;;;;;;;5.44;100.00;101088.03;4905636;29;20060;-75
2023/01/30 00:56:43;;;;;;;0.00;0.00;;;;;;;5.54;100.00;101106.56;4888792;29;20029;-74
2023/01/30 00:59:08;;;;;;;0.00;0.00;;;;;;;5.48;100.00;101091.97;4885320;29;20032;-75
2023/01/30 01:01:33;;;;;;;0.00;0.00;;;;;;;5.69;100.00;101101.66;4901143;29;20479;-74
2023/01/30 01:03:59;;;;;;;0.00;0.00;;;;;;;5.86;100.00;101122.91;4866768;29;20055;-74
2023/01/30 01:06:24;;;;;;;0.00;0.00;;;;;;;5.92;100.00;101113.88;4901077;29;20381;-74
2023/01/30 01:08:50;;;;;;;0.10;0.10;;;;;;;5.96;100.00;101112.38;4891773;29;20391;-74
2023/01/30 01:11:23;;;;;;;0.00;0.00;;;;;;;5.93;100.00;101101.97;4880043;29;20083;-74
2023/01/30 01:13:50;;;;;;;0.00;0.00;;;;;;;6.00;100.00;101101.94;4868857;29;20135;-74
2023/01/30 01:16:15;;;;;;;0.10;0.10;;;;;;;6.04;100.00;101095.84;4909273;29;20025;-75
2023/01/30 01:18:41;;;;;;;0.00;0.00;;;;;;;5.96;100.00;101074.38;4882061;29;20025;-73
2023/01/30 01:21:06;;;;;;;0.00;0.00;;;;;;;6.12;100.00;101089.34;4891842;29;20032;-74
2023/01/30 01:23:31;;;;;;;0.00;0.00;;;;;;;6.15;100.00;101090.75;4899720;29;20131;-74
2023/01/30 01:26:00;;;;;;;0.00;0.00;;;;;;;6.11;100.00;101074.91;4869408;29;20369;-75
2023/01/30 01:28:26;;;;;;;0.00;0.00;;;;;;;6.06;100.00;101074.75;4873087;29;20025;-76
2023/01/30 01:30:51;;;;;;;0.00;0.00;;;;;;;6.05;100.00;101067.66;4899314;29;20032;-76
2023/01/30 01:33:20;;;;;;;0.00;0.00;;;;;;;6.18;100.00;101079.50;4898649;29;20119;-75
2023/01/30 01:35:46;;;;;;;0.00;0.00;;;;;;;6.14;100.00;101070.09;4886852;29;20080;-75
2023/01/30 01:38:12;;;;;;;0.00;0.00;;;;;;;6.24;100.00;101071.25;4892062;29;20033;-76
2023/01/30 01:43:24;;;;;;;0.10;0.10;;;;;;;6.13;100.00;101052.97;4910732;29;20091;-74
2023/01/30 01:46:08;;;;;;;0.00;0.00;;;;;;;6.19;100.00;101072.97;4894135;29;20167;-74
2023/01/30 01:48:39;;;;;;;0.00;0.00;;;;;;;6.17;100.00;101061.53;4881100;29;20507;-74
2023/01/30 01:51:10;;;;;;;0.00;0.00;;;;;;;6.31;100.00;101081.25;4900940;29;20499;-75
2023/01/30 01:53:42;;;;;;;0.00;0.00;;;;;;;6.41;100.00;101077.00;4892372;29;20032;-75
2023/01/30 01:56:09;;;;;;;0.00;0.00;;;;;;;6.40;100.00;101069.88;4911886;29;20098;-76
2023/01/30 01:58:42;;;;;;;0.00;0.00;;;;;;;6.42;100.00;101066.94;4895070;29;20020;-74
2023/01/30 02:01:08;;;;;;;0.00;0.00;;;;;;;6.51;100.00;101079.19;4878349;29;20092;-76
2023/01/30 02:03:38;;;;;;;0.00;0.00;;;;;;;6.52;100.00;101077.31;4901527;29;20028;-75
2023/01/30 02:06:05;;;;;;;0.00;0.00;;;;;;;6.54;100.00;101081.47;4891307;29;20076;-75
2023/01/30 02:08:38;;;;;;;0.00;0.00;;;;;;;6.46;100.00;101060.84;4899156;29;20032;-75
2023/01/30 02:11:09;;;;;;;0.00;0.00;;;;;;;6.54;100.00;101072.47;4902456;29;20538;-74
2023/01/30 02:13:35;;;;;;;0.00;0.00;;;;;;;6.56;100.00;101070.38;4898473;29;20470;-76
2023/01/30 02:16:04;;;;;;;0.00;0.00;;;;;;;6.56;100.00;101073.09;4875262;29;20028;-74
2023/01/30 02:18:33;;;;;;;0.00;0.00;;;;;;;6.53;100.00;101062.69;4892153;29;20057;-75
2023/01/30 02:21:13;;;;;;;0.00;0.00;;;;;;;6.54;100.00;101072.47;4892992;29;20039;-75
2023/01/30 02:23:57;;;;;;;0.00;0.00;;;;;;;6.49;100.00;101065.00;4890479;29;20024;-76
2023/01/30 02:26:44;;;;;;;0.00;0.00;;;;;;;6.51;100.00;101071.03;4900103;29;20107;-76
2023/01/30 02:29:15;;;;;;;0.00;0.00;;;;;;;6.56;100.00;101068.47;4890525;29;20054;-75
2023/01/30 02:31:47;;;;;;;0.00;0.00;;;;;;;6.56;100.00;101070.38;4900858;29;20044;-76
2023/01/30 02:34:26;;;;;;;0.00;0.00;;;;;;;6.58;100.00;101065.53;4902079;29;20032;-76
2023/01/30 02:37:25;;;;;;;0.00;0.00;;;;;;;6.60;100.00;101052.56;4904571;29;20059;-77
2023/01/30 02:40:04;;;;;;;0.00;0.00;;;;;;;6.63;100.00;101052.94;4891460;29;20107;-76
2023/01/30 02:42:36;;;;;;;0.00;0.00;;;;;;;6.66;100.00;101053.53;4889511;29;20055;-76
2023/01/30 02:45:19;;;;;;;0.00;0.00;;;;;;;6.64;100.00;101045.63;4899070;29;20024;-77
2023/01/30 02:48:01;;;;;;;0.00;0.00;;;;;;;6.70;100.00;101069.19;4876088;29;20032;-77
2023/01/30 02:50:31;;;;;;;0.00;0.00;;;;;;;6.69;100.00;101064.81;4904283;29;20051;-77
2023/01/30 02:52:57;;;;;;;0.00;0.00;;;;;;;6.74;100.00;101064.13;4892795;29;20605;-77
2023/01/30 02:55:25;;;;;;;0.00;0.00;;;;;;;6.71;100.00;101059.97;4897839;29;20071;-76
2023/01/30 02:57:51;;;;;;;0.00;0.00;;;;;;;6.73;100.00;101052.44;4906594;29;21233;-76
2023/01/30 03:00:26;;;;;;;0.00;0.00;;;;;;;6.79;100.00;101050.69;4889221;29;20024;-76
2023/01/30 03:03:16;;;;;;;0.00;0.00;;;;;;;6.82;100.00;101045.66;4891260;29;20470;-76
2023/01/30 03:05:52;;;;;;;0.00;0.00;;;;;;;6.81;100.00;101049.41;4914058;29;20055;-74
2023/01/30 03:08:40;;;;;;;0.00;0.00;;;;;;;6.80;100.00;101046.91;4906096;29;20530;-74
2023/01/30 03:11:10;;;;;;;0.00;0.00;;;;;;;6.80;100.00;101050.50;4892913;29;20055;-75
2023/01/30 03:13:50;;;;;;;0.00;0.00;;;;;;;6.86;100.00;101054.16;4878172;29;20079;-75
2023/01/30 03:16:39;;;;;;;0.00;0.00;;;;;;;6.88;100.00;101064.81;4882997;29;20383;-75
2023/01/30 03:19:08;;;;;;;0.00;0.00;;;;;;;6.83;100.00;101054.63;4889481;29;20172;-75
2023/01/30 03:21:40;;;;;;;0.00;0.00;;;;;;;6.92;100.00;101071.47;4894102;29;20047;-74
2023/01/30 03:24:06;;;;;;;0.00;0.00;;;;;;;6.97;100.00;101069.72;4893044;29;20026;-76
2023/01/30 03:26:47;;;;;;;0.00;0.00;;;;;;;6.98;100.00;101076.03;4860519;29;20123;-76
2023/01/30 03:29:13;;;;;;;0.00;0.00;;;;;;;6.91;100.00;101058.94;4893094;29;20020;-76
2023/01/30 03:31:41;;;;;;;0.00;0.00;;;;;;;7.00;100.00;101068.47;4884128;29;20100;-77
2023/01/30 03:34:06;;;;;;;0.00;0.00;;;;;;;7.11;100.00;101073.16;4908247;29;20047;-78
2023/01/30 03:36:35;;;;;;;0.00;0.00;;;;;;;7.07;100.00;101062.97;4880526;29;20036;-75
2023/01/30 03:39:04;;;;;;;0.05;0.05;;;;;;;7.17;100.00;101079.56;4896032;29;20050;-76
2023/01/30 03:41:30;;;;;;;0.00;0.00;;;;;;;7.12;100.00;101082.94;4896799;29;20032;-75
2023/01/30 03:43:55;;;;;;;0.00;0.00;;;;;;;6.97;100.00;101064.28;4904876;29;20538;-74
2023/01/30 03:46:20;;;;;;;0.00;0.00;;;;;;;6.86;100.00;101070.47;4876566;29;20376;-75
2023/01/30 03:48:46;;;;;;;0.00;0.00;;;;;;;6.71;100.00;101064.59;4898246;29;20475;-76
2023/01/30 03:51:11;;;;;;;0.00;0.00;;;;;;;6.67;100.00;101085.94;4893160;29;20063;-76
2023/01/30 03:53:37;;;;;;;0.00;0.00;;;;;;;6.59;100.00;101073.47;4873076;29;20045;-75
2023/01/30 03:56:05;;;;;;;0.00;0.00;;;;;;;6.53;100.00;101062.69;4894125;29;20088;-76
2023/01/30 04:01:07;;;;;;;0.00;0.00;;;;;;;6.52;100.00;101058.28;4905810;29;20048;-74
2023/01/30 04:03:33;;;;;;;0.00;0.00;;;;;;;6.43;100.00;101052.31;4894174;29;20818;-77
2023/01/30 04:05:59;;;;;;;0.00;0.00;;;;;;;6.48;100.00;101076.91;4907502;29;20032;-76
2023/01/30 04:08:24;;;;;;;0.00;0.00;;;;;;;6.23;100.00;101047.03;4889526;29;20051;-77
2023/01/30 04:10:50;;;;;;;0.00;0.00;;;;;;;6.35;100.00;101061.59;4908423;29;20095;-76
2023/01/30 04:13:15;;;;;;;0.00;0.00;;;;;;;6.45;100.00;101070.06;4913088;29;20028;-77
2023/01/30 04:15:41;;;;;;;0.00;0.00;;;;;;;6.53;100.00;101076.28;4897688;29;20035;-75
2023/01/30 04:18:06;;;;;;;0.00;0.00;;;;;;;6.57;100.00;101066.59;4899262;29;20039;-75
2023/01/30 04:20:32;;;;;;;0.10;0.10;;;;;;;6.61;100.00;101070.53;4865079;29;20043;-75
2023/01/30 04:23:00;;;;;;;0.00;0.00;;;;;;;6.74;100.00;101075.81;4916732;29;20497;-76
2023/01/30 04:25:27;;;;;;;0.00;0.00;;;;;;;6.73;100.00;101068.75;4897221;29;20040;-76
2023/01/30 04:27:53;;;;;;;0.00;0.00;;;;;;;6.86;100.00;101075.09;4914930;29;20115;-77
2023/01/30 04:30:18;;;;;;;0.00;0.00;;;;;;;6.86;100.00;101073.19;4898636;29;20558;-76
2023/01/30 04:32:51;;;;;;;0.00;0.00;;;;;;;6.79;100.00;101056.13;4903092;29;20031;-77
2023/01/30 04:35:17;;;;;;;0.00;0.00;;;;;;;6.74;100.00;101045.94;4898625;29;20047;-74
2023/01/30 04:37:42;;;;;;;0.00;0.00;;;;;;;6.84;100.00;101069.06;4895132;29;20028;-75
2023/01/30 04:40:08;;;;;;;0.00;0.00;;;;;;;6.89;100.00;101093.66;4916526;29;20158;-75
2023/01/30 04:42:34;;;;;;;0.00;0.00;;;;;;;6.79;100.00;101073.28;4889224;29;20467;-74
2023/01/30 04:45:04;;;;;;;0.00;0.00;;;;;;;6.84;100.00;101082.66;4900475;29;20024;-76
2023/01/30 04:47:30;;;;;;;0.00;0.00;;;;;;;6.93;100.00;101097.59;4897659;29;20063;-75
2023/01/30 04:49:55;;;;;;;0.00;0.00;;;;;;;6.80;100.00;101085.81;4909657;29;20817;-77
2023/01/30 04:52:21;;;;;;;0.00;0.00;;;;;;;6.91;100.00;101097.00;4877242;29;20581;-75
2023/01/30 04:54:46;;;;;;;0.00;0.00;;;;;;;6.88;100.00;101102.88;4884735;29;20063;-75
2023/01/30 04:57:11;;;;;;;0.00;0.00;;;;;;;6.90;100.00;101103.50;4903448;29;20435;-76
2023/01/30 04:59:37;;;;;;;0.05;0.05;;;;;;;6.89;100.00;101093.66;4909391;29;20507;-77
2023/01/30 05:02:02;;;;;;;0.00;0.00;;;;;;;6.87;100.00;101101.22;4931089;29;20382;-75
2023/01/30 05:04:28;;;;;;;0.00;0.00;;;;;;;6.89;100.00;101099.97;4916814;29;20031;-76
2023/01/30 05:06:53;;;;;;;0.00;0.00;;;;;;;6.89;100.00;101099.97;4891491;29;20046;-75
2023/01/30 05:09:19;;;;;;;0.00;0.00;;;;;;;6.78;100.00;101082.47;4910683;29;20079;-76
2023/01/30 05:11:44;;;;;;;0.00;0.00;;;;;;;6.80;100.00;101095.84;4892579;29;20055;-76
2023/01/30 05:14:12;;;;;;;0.00;0.00;;;;;;;6.78;100.00;101104.22;4879915;29;20106;-76
2023/01/30 05:16:40;;;;;;;0.00;0.00;;;;;;;6.71;100.00;101106.19;4917726;29;20020;-76
2023/01/30 05:19:05;;;;;;;0.00;0.00;;;;;;;6.58;100.00;101109.84;4931757;29;20024;-75
2023/01/30 05:21:31;;;;;;;0.00;0.00;;;;;;;6.53;100.00;101125.19;4881339;29;20032;-75
2023/01/30 05:23:56;;;;;;;0.00;0.00;;;;;;;6.43;100.00;101123.78;4910502;29;20036;-76
2023/01/30 05:26:22;;;;;;;0.00;0.00;;;;;;;6.42;100.00;101143.84;4910576;29;20028;-76
2023/01/30 05:28:53;;;;;;;0.00;0.00;;;;;;;6.32;100.00;101143.50;4917590;29;20128;-76
2023/01/30 05:31:19;;;;;;;0.00;0.00;;;;;;;6.32;100.00;101148.94;4929850;29;20169;-77
2023/01/30 05:33:46;;;;;;;0.00;0.00;;;;;;;6.21;100.00;101142.31;4928705;29;20479;-76
2023/01/30 05:36:15;;;;;;;0.00;0.00;;;;;;;6.19;100.00;101154.47;4918830;29;20040;-76
2023/01/30 05:38:45;;;;;;;0.00;0.00;;;;;;;6.11;100.00;101161.00;4919505;29;20063;-76
2023/01/30 05:41:13;;;;;;;0.00;0.00;;;;;;;6.00;100.00;101139.94;4924245;29;20122;-76
2023/01/30 05:43:39;;;;;;;0.00;0.00;;;;;;;6.03;100.00;101172.94;4929564;29;20039;-76
2023/01/30 05:46:05;;;;;;;0.00;0.00;;;;;;;6.06;100.00;101177.09;4913204;29;20028;-75
2023/01/30 05:48:38;;;;;;;0.00;0.00;;;;;;;5.94;100.00;101174.19;4931562;29;21077;-75
2023/01/30 05:51:04;;;;;;;0.00;0.00;;;;;;;5.94;100.00;101176.91;4917555;29;20026;-76
2023/01/30 05:53:33;;;;;;;0.05;0.05;;;;;;;6.01;100.00;101169.59;4904124;29;20065;-76
2023/01/30 05:56:02;;;;;;;0.00;0.00;;;;;;;6.19;100.00;101181.63;4915694;29;20051;-77
2023/01/30 05:58:28;;;;;;;0.00;0.00;;;;;;;6.13;100.00;101167.03;4932632;29;20359;-77
2023/01/30 06:00:53;;;;;;;0.00;0.00;;;;;;;6.22;100.00;101189.31;4928772;28;20052;-77
2023/01/30 06:03:19;;;;;;;0.00;0.00;;;;;;;6.01;100.00;101172.31;4927209;29;20557;-76
2023/01/30 06:05:44;;;;;;;0.00;0.00;;;;;;;6.01;100.00;101196.75;4901059;29;20031;-78
2023/01/30 06:08:10;;;;;;;0.00;0.00;;;;;;;5.89;100.00;101203.88;4874829;29;20043;-75
2023/01/30 06:10:35;;;;;;;0.00;0.00;;;;;;;5.76;100.00;101202.88;4915514;29;20027;-76
2023/01/30 06:13:01;;;;;;;0.00;0.00;;;;;;;5.61;100.00;101207.75;4916192;29;20032;-75
2023/01/30 06:15:27;;;;;;;0.00;0.00;;;;;;;5.57;100.00;101206.50;4901917;29;20031;-76
2023/01/30 06:17:52;;;;;;;0.00;0.00;;;;;;;5.59;100.00;101207.97;4900501;29;20035;-76
2023/01/30 06:20:18;;;;;;;0.00;0.00;;;;;;;5.48;100.00;101229.50;4897578;29;20513;-75
2023/01/30 06:22:45;;;;;;;0.00;0.00;;;;;;;5.47;100.00;101225.94;4909938;29;20114;-75
2023/01/30 06:25:13;;;;;;;0.00;0.00;;;;;;;5.43;100.00;101221.97;4900990;29;20042;-75
2023/01/30 06:27:42;;;;;;;0.00;0.00;;;;;;;5.26;100.00;101213.47;4915829;29;20520;-76
2023/01/30 06:30:10;;;;;;;0.10;0.10;;;;;;;5.19;100.00;101237.06;4884127;29;20036;-78
2023/01/30 06:32:36;;;;;;;0.00;0.00;;;;;;;4.98;100.00;101225.41;4928894;29;20028;-76
2023/01/30 06:35:01;;;;;;;0.00;0.00;;;;;;;4.88;100.00;101242.06;4917901;29;20035;-77
2023/01/30 06:37:27;;;;;;;0.00;0.00;;;;;;;4.77;100.00;101250.81;4917619;29;20088;-77
2023/01/30 06:39:52;;;;;;;0.00;0.00;;;;;;;4.63;100.00;101241.84;4931280;29;20394;-76
2023/01/30 06:42:17;;;;;;;0.10;0.10;;;;;;;4.56;100.00;101249.13;4924671;29;20420;-75
2023/01/30 06:44:43;;;;;;;0.00;0.00;;;;;;;4.45;100.00;101249.72;4915171;29;20051;-74
2023/01/30 06:47:08;;;;;;;0.00;0.00;;;;;;;4.44;100.00;101253.47;4917631;29;20106;-75
2023/01/30 06:49:33;;;;;;;0.00;0.00;;;;;;;4.44;100.00;101277.84;4916541;29;20030;-75
2023/01/30 06:51:59;;;;;;;0.00;0.00;;;;;;;4.34;100.00;101284.50;4913537;29;20039;-75
2023/01/30 06:54:24;;;;;;;0.00;0.00;;;;;;;4.28;100.00;101295.28;4901755;29;20155;-75
2023/01/30 06:56:50;;;;;;;0.00;0.00;;;;;;;4.21;100.00;101300.69;4898941;29;20032;-75
2023/01/30 06:59:15;;;;;;;0.00;0.00;;;;;;;4.20;100.00;101304.44;4915989;29;20047;-76
2023/01/30 07:01:41;;;;;;;0.00;0.00;;;;;;;4.11;100.00;101294.84;4917294;29;20083;-76
2023/01/30 07:04:06;;;;;;;0.00;0.00;;;;;;;4.07;100.00;101309.81;4897455;29;20466;-75
2023/01/30 07:06:31;;;;;;;0.00;0.00;;;;;;;4.01;100.00;101312.25;4930392;29;20649;-75
2023/01/30 07:08:57;;;;;;;0.00;0.00;;;;;;;3.88;100.00;101293.25;4894207;29;20035;-75
2023/01/30 07:11:26;;;;;;;0.00;0.00;;;;;;;3.88;100.00;101306.78;4929161;29;20027;-75
2023/01/30 07:13:51;;;;;;;0.05;0.05;;;;;;;3.73;100.00;101297.97;4937738;29;20054;-76
2023/01/30 07:16:17;;;;;;;0.00;0.00;;;;;;;3.69;100.00;101296.69;4914514;29;20058;-75
2023/01/30 07:18:43;;;;;;;0.00;0.00;;;;;;;3.69;100.00;101312.94;4928855;29;20023;-75
2023/01/30 07:21:08;;;;;;;0.00;0.00;;;;;;;3.60;100.00;101310.38;4923031;29;20067;-75
2023/01/30 07:23:34;;;;;;;0.00;0.00;;;;;;;3.55;100.00;101307.44;4897182;29;20064;-75
2023/01/30 07:26:03;;;;;;;0.00;0.00;;;;;;;3.51;100.00;101300.75;4910730;29;20030;-75
2023/01/30 07:28:28;;;;;;;0.00;0.00;;;;;;;3.61;100.00;101322.88;4929065;29;20024;-76
2023/01/30 07:30:54;;;;;;;0.08;0.08;;;;;;;3.63;100.00;101326.19;4894368;29;20479;-75
2023/01/30 07:33:19;;;;;;;0.00;0.00;;;;;;;3.56;100.00;101314.50;4915086;29;20057;-75
2023/01/30 07:35:45;;;;;;;0.03;0.03;;;;;;;3.58;100.00;101330.56;4883999;29;20032;-74
2023/01/30 07:38:18;;;;;;;0.00;0.00;;;;;;;3.41;100.00;101316.47;4912725;29;20035;-76
2023/01/30 07:40:43;;;;;;;0.00;0.00;;;;;;;3.36;100.00;101330.59;4903448;29;20524;-76
2023/01/30 07:43:11;;;;;;;0.00;0.00;;;;;;;3.26;100.00;101349.03;4910383;29;20028;-75
2023/01/30 07:45:39;;;;;;;0.00;0.00;;;;;;;3.23;100.00;101352.94;4929523;29;20031;-77
2023/01/30 07:48:05;;;;;;;0.00;0.00;;;;;;;3.26;100.00;101360.66;4913715;29;20023;-74
2023/01/30 07:50:33;;;;;;;0.10;0.10;;;;;;;3.17;100.00;101359.13;4910194;29;20043;-75
2023/01/30 07:53:03;;;;;;;0.00;0.00;;;;;;;3.22;100.00;101366.66;4908028;23;20064;-74
2023/01/30 07:55:28;;;;;;;0.00;0.00;;;;;;;3.22;100.00;101367.47;4889142;29;20091;-75
2023/01/30 07:57:53;;;;;;;0.00;0.00;;;;;;;3.21;100.00;101365.81;4886904;29;20116;-77
2023/01/30 08:00:19;;;;;;;0.00;0.00;;;;;;;3.16;100.00;101352.03;4885723;29;20052;-74
2023/01/30 08:02:44;;;;;;;0.00;0.00;;;;;;;3.27;100.00;101375.00;4873384;29;20040;-76
2023/01/30 08:05:10;;;;;;;0.00;0.00;;;;;;;3.24;100.00;101368.16;4893675;29;20382;-75
2023/01/30 08:07:46;;;;;;;0.00;0.00;;;;;;;3.31;100.00;101379.84;4897548;29;20536;-78
2023/01/30 08:10:12;;;;;;;0.00;0.00;;;;;;;3.40;100.00;101382.41;4895320;29;20114;-76
2023/01/30 08:12:41;;;;;;;0.00;0.00;;;;;;;3.32;100.00;101359.88;4900766;29;20118;-76
2023/01/30 08:15:09;;;;;;;0.00;0.00;;;;;;;3.47;100.00;101388.69;4907470;29;20027;-76
2023/01/30 08:17:34;;;;;;;0.00;0.00;;;;;;;3.40;100.00;101382.41;4897124;29;20024;-77
2023/01/30 08:20:00;;;;;;;0.00;0.00;;;;;;;3.32;100.00;101368.00;4890532;29;20551;-77
2023/01/30 08:22:25;;;;;;;0.00;0.00;;;;;;;3.38;100.00;101387.19;4906015;29;20025;-78
2023/01/30 08:24:50;;;;;;;0.00;0.00;;;;;;;3.34;100.00;101402.13;4893330;29;20119;-78
2023/01/30 08:27:16;;;;;;;0.00;0.00;;;;;;;3.42;100.00;101405.53;4896023;29;20467;-78
2023/01/30 08:29:43;;;;;;;0.00;0.00;;;;;;;3.30;100.00;101394.41;4892735;29;20040;-79
2023/01/30 08:32:08;;;;;;;0.00;0.00;;;;;;;3.40;100.00;101395.91;4877257;29;20036;-79
2023/01/30 08:34:34;;;;;;;0.10;0.10;;;;;;;3.50;100.00;101391.00;4897724;29;20471;-78
2023/01/30 08:37:08;;;;;;;0.00;0.00;;;;;;;3.64;100.00;101406.31;4874348;29;20033;-78
2023/01/30 08:39:51;;;;;;;0.00;0.00;;;;;;;3.71;100.00;101392.00;4885050;29;20032;-79
2023/01/30 08:42:46;;;;;;;;;;;;;;;;;;;;;
2023/01/30 08:45:14;;;;;;;0.00;0.00;;;;;;;3.94;100.00;101418.81;4894394;29;20050;-77
2023/01/30 08:47:39;;;;;;;0.10;0.10;;;;;;;3.89;100.00;101405.88;4896831;29;20435;-78
2023/01/30 08:50:05;;;;;;;0.00;0.00;;;;;;;3.95;100.00;101404.25;4882595;29;20024;-77
2023/01/30 08:52:41;;;;;;;0.10;0.10;;;;;;;4.05;100.00;101406.63;4880314;29;20136;-79
2023/01/30 08:55:08;;;;;;;0.03;0.03;;;;;;;4.05;100.00;101398.50;4904611;29;20100;-79
2023/01/30 08:57:33;;;;;;;0.08;0.08;;;;;;;4.19;100.00;101417.31;4900071;29;20040;-79
2023/01/30 09:00:07;;;;;;;0.03;0.03;;;;;;;4.37;100.00;101407.84;4904220;29;20028;-78
2023/01/30 09:02:33;;;;;;;0.00;0.00;;;;;;;4.46;100.00;101401.19;4905195;29;20036;-76
2023/01/30 09:04:59;;;;;;;0.00;0.00;;;;;;;4.58;100.00;101415.00;4911992;29;20032;-77
2023/01/30 09:10:50;;;;;;;0.00;0.00;;;;;;;4.57;99.01;101397.09;4901969;29;20906;-77
2023/01/30 09:13:47;;;;;;;0.00;0.00;;;;;;;4.68;99.13;101415.47;4909483;29;20025;-79
2023/01/30 09:16:18;;;;;;;0.00;0.00;;;;;;;4.47;97.92;101372.25;4915132;29;20399;-76
2023/01/30 09:18:51;;;;;;;0.10;0.10;;;;;;;4.67;96.43;101391.28;4906316;29;20402;-78
2023/01/30 09:21:18;;;;;;;0.00;0.00;;;;;;;4.82;96.84;101394.69;4911833;29;20020;-79
2023/01/30 09:23:44;;;;;;;0.00;0.00;;;;;;;5.01;96.48;101412.03;4898827;29;20036;-78
2023/01/30 09:26:09;;;;;;;0.00;0.00;;;;;;;5.15;96.05;101409.34;4897993;29;20023;-78
2023/01/30 09:28:35;;;;;;;0.00;0.00;;;;;;;5.45;96.02;101419.81;4909757;29;20651;-77
2023/01/30 09:31:09;;;;;;;0.08;0.08;;;;;;;5.39;94.90;101422.31;4918436;29;20032;-78
2023/01/30 09:33:35;;;;;;;0.00;0.00;;;;;;;5.36;94.33;101417.31;4897483;29;20036;-77
2023/01/30 09:36:03;;;;;;;0.00;0.00;;;;;;;5.47;94.87;101442.16;4893439;29;20043;-78
2023/01/30 09:38:33;;;;;;;0.00;0.00;;;;;;;5.45;94.63;101444.22;4920641;29;20036;-78
2023/01/30 09:41:06;;;;;;;0.00;0.00;;;;;;;5.48;94.70;101444.66;4905397;29;21679;-78
2023/01/30 09:44:00;;;;;;;0.00;0.00;;;;;;;5.40;94.63;101442.97;4927113;29;20040;-79
2023/01/30 09:46:38;;;;;;;0.00;0.00;;;;;;;5.27;94.06;101431.25;4906645;29;20660;-78
2023/01/30 09:49:29;;;;;;;0.00;0.00;;;;;;;5.26;95.20;101430.44;4904955;29;20123;-78
2023/01/30 09:52:08;;;;;;;0.00;0.00;;;;;;;5.25;96.46;101420.63;4884972;29;20498;-78
2023/01/30 09:54:36;;;;;;;0.00;0.00;;;;;;;5.38;97.65;101423.34;4910282;29;20036;-79
2023/01/30 09:57:14;;;;;;;0.10;0.10;;;;;;;5.56;97.91;101446.31;4914554;29;20105;-78
2023/01/30 09:59:54;;;;;;;0.00;0.00;;;;;;;5.70;96.24;101445.28;4913138;29;20047;-79
2023/01/30 10:02:36;;;;;;;0.00;0.00;;;;;;;5.82;96.45;101434.63;4912760;29;20035;-78
2023/01/30 10:05:11;;;;;;;0.00;0.00;;;;;;;5.79;95.95;101420.66;4908305;29;20039;-78
2023/01/30 10:07:53;;;;;;;0.00;0.00;;;;;;;5.80;94.84;101444.03;4911513;29;20833;-78
2023/01/30 10:10:42;;;;;;;0.00;0.00;;;;;;;5.64;94.64;101431.75;4927764;29;20054;-77
2023/01/30 10:13:31;;;;;;;0.00;0.00;;;;;;;5.54;93.64;101430.25;4915619;29;20024;-80
2023/01/30 10:16:17;;;;;;;0.00;0.00;;;;;;;5.30;94.02;101401.88;4909831;29;20115;-78
2023/01/30 10:18:48;;;;;;;0.00;0.00;;;;;;;5.31;94.55;101419.78;4907904;29;20083;-80
2023/01/30 10:21:29;;;;;;;0.00;0.00;;;;;;;5.31;95.45;101424.38;4908808;29;20599;-78
2023/01/30 10:24:23;;;;;;;0.00;0.00;;;;;;;5.34;95.25;101435.66;4919068;29;20024;-78
2023/01/30 10:26:49;;;;;;;0.00;0.00;;;;;;;5.39;96.43;101432.34;4919235;29;20091;-78
2023/01/30 10:29:28;;;;;;;0.00;0.00;;;;;;;5.66;96.34;101449.47;4905653;29;20440;-79
2023/01/30 10:32:25;;;;;;;0.00;0.00;;;;;;;5.77;96.74;101446.13;4897821;29;20040;-78
2023/01/30 10:35:04;;;;;;;0.00;0.00;;;;;;;5.83;96.45;101446.34;4903870;29;20044;-79
2023/01/30 10:37:43;;;;;;;0.03;0.03;;;;;;;5.90;95.23;101450.72;4905952;29;20032;-80
2023/01/30 10:40:20;;;;;;;0.00;0.00;;;;;;;6.08;94.78;101479.97;4918147;29;20027;-81
2023/01/30 10:43:16;;;;;;;0.00;0.00;;;;;;;6.03;93.80;101454.50;4904781;29;20031;-79
2023/01/30 10:46:03;;;;;;;0.03;0.03;;;;;;;6.14;92.83;101463.91;4903993;29;20115;-77
2023/01/30 10:48:54;;;;;;;0.00;0.00;;;;;;;6.07;92.34;101467.44;4916869;29;20056;-77
2023/01/30 10:52:01;;;;;;;0.00;0.00;;;;;;;6.07;92.14;101469.31;4920569;29;20024;-77
2023/01/30 10:55:07;;;;;;;0.00;0.00;;;;;;;6.13;93.07;101462.22;4888710;29;20045;-78
2023/01/30 10:57:49;;;;;;;0.00;0.00;;;;;;;6.34;92.85;101461.97;4859517;29;20072;-78
2023/01/30 11:00:28;;;;;;;0.00;0.00;;;;;;;6.78;92.74;101489.44;4907558;29;20796;-79
2023/01/30 11:03:18;;;;;;;0.00;0.00;;;;;;;7.13;91.65;101486.38;4915984;29;20032;-78
2023/01/30 11:05:49;;;;;;;0.00;0.00;;;;;;;7.57;90.38;101484.63;4924363;29;20031;-78
2023/01/30 11:08:35;;;;;;;0.00;0.00;;;;;;;8.77;87.06;101479.97;4922356;29;20049;-79
2023/01/30 11:11:29;;;;;;;0.00;0.00;;;;;;;10.21;82.43;101477.44;4917382;29;20060;-81
2023/01/30 11:14:10;;;;;;;0.00;0.00;;;;;;;12.01;76.04;101479.06;4913759;29;20438;-79
2023/01/30 11:16:56;;;;;;;0.00;0.00;;;;;;;12.95;67.99;101492.97;4916430;29;20031;-79
2023/01/30 11:19:32;;;;;;;0.00;0.00;;;;;;;12.92;67.11;101493.50;4922090;29;20151;-77
2023/01/30 11:22:14;;;;;;;;;;;;;;;;;;;;;
2023/01/30 11:24:43;;;;;;;0.00;0.00;;;;;;;13.49;70.19;101485.94;4924322;28;20016;-80
2023/01/30 11:27:14;;;;;;;0.00;0.00;;;;;;;14.04;65.20;101493.00;4919904;29;20115;-79
2023/01/30 11:29:45;;;;;;;0.00;0.00;;;;;;;14.92;63.98;101477.88;4922093;29;20404;-79
2023/01/30 11:32:21;;;;;;;0.00;0.00;;;;;;;17.90;53.22;101494.94;4905245;29;20032;-79
2023/01/30 11:35:02;;;;;;;0.00;0.00;;;;;;;18.87;46.10;101501.44;4923600;29;20044;-80
2023/01/30 11:37:38;;;;;;;0.00;0.00;;;;;;;20.02;43.49;101497.56;4914614;29;20047;-78
2023/01/30 11:40:26;;;;;;;0.00;0.00;;;;;;;22.42;39.58;101494.56;4927831;29;20027;-78
2023/01/30 11:43:05;;;;;;;0.00;0.00;;;;;;;22.65;42.72;101489.72;4902508;29;20190;-80
2023/01/30 11:45:37;;;;;;;0.00;0.00;;;;;;;20.45;41.69;101481.81;4917659;29;20091;-78
2023/01/30 11:48:11;;;;;;;0.00;0.00;;;;;;;18.78;46.63;101486.59;4911397;29;20636;-79
2023/01/30 11:50:40;;;;;;;0.00;0.00;;;;;;;18.98;45.94;101491.91;4921278;29;20031;-78
2023/01/30 11:53:23;;;;;;;0.00;0.00;;;;;;;20.10;42.77;101486.91;4897028;29;20053;-78
2023/01/30 11:55:49;;;;;;;0.00;0.00;;;;;;;19.87;43.41;101498.66;4900584;29;20123;-79
2023/01/30 11:58:14;;;;;;;0.00;0.00;;;;;;;19.87;44.06;101490.34;4879420;29;20060;-79
2023/01/30 12:00:49;;;;;;;0.00;0.00;;;;;;;19.95;44.91;101496.31;4875123;29;20029;-77